Time;durP1;ratioP1;P1;durP2;ratioP2;P2;SDS_P1;SDS_P2;PMS_P1;PMS_P2;Temp;Humidity;BMP_temperature;BMP_pressure;BME280_temperature;BME280_humidity;BME280_pressure;Samples;Min_cycle;Max_cycle;Signal;HPM_P1;HPM_P2
2021/04/04 00:00:29;;;;;;;7.00;4.30;;;5.30;1.00;;;;;;5036363;28;20084;-76
2021/04/04 00:02:55;;;;;;;10.05;7.57;;;5.20;1.00;;;;;;5036139;28;20199;-76
2021/04/04 00:05:21;;;;;;;13.40;7.07;;;5.10;99.90;;;;;;5031139;28;20505;-76
2021/04/04 00:07:48;;;;;;;10.82;7.15;;;5.10;1.00;;;;;;5026556;28;20037;-76
2021/04/04 00:10:14;;;;;;;8.88;4.43;;;5.30;99.90;;;;;;5028382;28;20178;-76
2021/04/04 00:12:40;;;;;;;4.22;3.10;;;5.20;99.90;;;;;;5031246;28;20041;-76
2021/04/04 00:15:12;;;;;;;10.18;5.55;;;5.30;99.90;;;;;;5033266;28;20029;-76
2021/04/04 00:17:39;;;;;;;8.80;3.65;;;5.40;99.90;;;;;;5025640;28;20091;-75
2021/04/04 00:20:14;;;;;;;12.23;5.38;;;5.40;1.00;;;;;;5031418;28;20196;-76
2021/04/04 00:22:40;;;;;;;13.18;5.22;;;5.20;99.90;;;;;;5029805;28;20498;-77
2021/04/04 00:25:08;;;;;;;16.88;6.00;;;5.10;99.90;;;;;;5022685;28;20124;-77
2021/04/04 00:27:33;;;;;;;8.57;3.58;;;5.20;99.90;;;;;;5030448;28;20025;-77
2021/04/04 00:30:00;;;;;;;10.77;4.78;;;5.20;99.90;;;;;;5024874;28;20034;-77
2021/04/04 00:32:25;;;;;;;7.10;3.55;;;5.20;99.90;;;;;;5031905;28;20057;-76
2021/04/04 00:34:51;;;;;;;11.05;3.92;;;5.20;36.90;;;;;;5031229;28;20052;-76
2021/04/04 00:37:17;;;;;;;14.45;3.80;;;5.10;99.90;;;;;;5025420;28;20393;-76
2021/04/04 00:39:43;;;;;;;6.07;3.80;;;5.00;1.00;;;;;;5032173;28;20040;-76
2021/04/04 00:42:08;;;;;;;6.07;4.00;;;4.90;1.00;;;;;;5032079;28;20425;-76
2021/04/04 00:44:34;;;;;;;6.43;4.00;;;4.80;1.00;;;;;;5029345;28;20018;-77
2021/04/04 00:46:59;;;;;;;7.63;4.30;;;4.80;91.20;;;;;;5030480;28;20071;-76
2021/04/04 00:49:25;;;;;;;8.25;4.05;;;4.80;32.10;;;;;;5028431;28;20509;-77
2021/04/04 00:51:52;;;;;;;15.10;7.55;;;4.80;6.60;;;;;;5035978;28;20026;-76
2021/04/04 00:54:18;;;;;;;8.15;5.60;;;4.80;1.00;;;;;;5035824;28;20034;-76
2021/04/04 00:56:44;;;;;;;6.78;4.43;;;4.80;1.00;;;;;;5035367;28;20366;-78
2021/04/04 00:59:12;;;;;;;11.30;3.92;;;4.60;99.90;;;;;;5032610;28;20053;-76
2021/04/04 01:01:38;;;;;;;4.50;3.88;;;4.50;99.90;;;;;;5034322;28;20440;-76
2021/04/04 01:04:04;;;;;;;6.53;3.58;;;4.60;1.00;;;;;;5035508;28;20017;-77
2021/04/04 01:06:29;;;;;;;6.35;3.20;;;4.70;68.90;;;;;;5046697;28;20493;-77
2021/04/04 01:08:55;;;;;;;4.65;2.85;;;4.90;1.00;;;;;;5034579;28;20290;-77
2021/04/04 01:11:50;;;;;;;8.15;3.38;;;4.80;99.90;;;;;;5034116;28;20375;-75
2021/04/04 01:14:38;;;;;;;7.13;3.97;;;4.70;99.90;;;;;;5015494;28;20117;-77
2021/04/04 01:17:05;;;;;;;9.68;3.63;;;4.70;99.90;;;;;;5031981;28;20456;-77
2021/04/04 01:20:00;;;;;;;7.35;3.58;;;4.60;1.00;;;;;;5045869;28;20120;-76
2021/04/04 01:22:49;;;;;;;6.82;2.92;;;4.50;25.40;;;;;;5026743;28;20030;-76
2021/04/04 01:25:38;;;;;;;7.75;3.63;;;4.40;2.10;;;;;;5020731;28;20489;-75
2021/04/04 01:28:08;;;;;;;6.38;3.30;;;4.40;43.70;;;;;;5025751;28;20030;-76
2021/04/04 01:30:38;;;;;;;2.83;2.60;;;4.40;81.40;;;;;;5017899;28;20022;-75
2021/04/04 01:33:05;;;;;;;8.77;3.53;;;4.20;99.90;;;;;;5034382;28;20068;-76
2021/04/04 01:35:37;;;;;;;4.75;3.25;;;4.20;99.90;;;;;;5032280;28;20079;-77
2021/04/04 01:38:11;;;;;;;6.78;3.55;;;4.20;99.90;;;;;;5031456;28;20027;-77
2021/04/04 01:40:39;;;;;;;5.85;3.55;;;4.20;99.90;;;;;;5030011;28;20026;-76
2021/04/04 01:43:07;;;;;;;4.97;3.60;;;4.20;99.90;;;;;;5030985;28;20036;-76
2021/04/04 01:45:33;;;;;;;7.38;3.63;;;4.20;99.90;;;;;;5049097;28;20024;-76
2021/04/04 01:48:01;;;;;;;9.52;3.78;;;4.10;1.00;;;;;;5034095;28;20032;-76
2021/04/04 01:50:28;;;;;;;6.50;3.78;;;4.10;1.00;;;;;;5033762;28;20104;-75
2021/04/04 01:52:55;;;;;;;5.70;3.83;;;4.00;99.90;;;;;;5034003;28;20093;-76
2021/04/04 01:55:23;;;;;;;4.60;3.72;;;4.00;99.90;;;;;;5034194;28;20026;-77
2021/04/04 01:57:50;;;;;;;7.38;5.03;;;4.00;99.90;;;;;;5030723;28;20034;-75
2021/04/04 02:00:19;;;;;;;8.85;4.57;;;4.00;99.90;;;;;;5029716;28;20558;-77
2021/04/04 02:02:46;;;;;;;15.75;4.10;;;4.00;99.90;;;;;;5026435;28;20029;-76
2021/04/04 02:05:13;;;;;;;6.35;3.33;;;3.90;99.90;;;;;;5036121;28;20041;-76
2021/04/04 02:07:42;;;;;;;5.65;3.90;;;3.90;99.90;;;;;;5035052;28;20035;-76
2021/04/04 02:10:13;;;;;;;5.53;4.22;;;3.90;99.90;;;;;;5027179;28;20022;-75
2021/04/04 02:12:39;;;;;;;11.00;4.40;;;3.90;99.90;;;;;;5025813;28;20262;-75
2021/04/04 02:15:09;;;;;;;8.75;4.40;;;3.90;99.90;;;;;;5033644;28;20033;-76
2021/04/04 02:17:36;;;;;;;8.38;3.97;;;4.00;99.90;;;;;;5020304;28;20036;-76
2021/04/04 02:20:06;;;;;;;8.73;4.45;;;3.90;99.90;;;;;;5035121;28;20109;-74
2021/04/04 02:22:33;;;;;;;6.20;4.18;;;3.90;99.90;;;;;;5036283;28;20481;-75
2021/04/04 02:24:59;;;;;;;11.90;4.35;;;3.90;99.90;;;;;;5036271;28;20496;-74
2021/04/04 02:27:26;;;;;;;7.72;4.35;;;3.90;99.90;;;;;;5039567;28;20169;-74
2021/04/04 02:29:51;;;;;;;5.97;4.38;;;3.80;99.90;;;;;;5039746;28;20025;-75
2021/04/04 02:32:20;;;;;;;7.45;4.95;;;3.70;99.90;;;;;;5039020;28;20083;-76
2021/04/04 02:34:49;;;;;;;7.32;4.10;;;3.70;1.00;;;;;;5042545;28;20027;-75
2021/04/04 02:37:15;;;;;;;6.95;4.43;;;3.70;1.00;;;;;;5047683;28;20037;-76
2021/04/04 02:40:02;;;;;;;7.75;4.10;;;3.60;1.00;;;;;;5048994;28;20029;-76
2021/04/04 02:42:28;;;;;;;12.00;5.95;;;3.60;1.00;;;;;;5055451;28;20018;-75
2021/04/04 02:44:58;;;;;;;4.18;3.70;;;3.60;1.00;;;;;;5051999;28;20025;-76
2021/04/04 02:47:31;;;;;;;7.80;3.83;;;3.60;99.90;;;;;;5050861;28;20030;-76
2021/04/04 02:49:58;;;;;;;5.97;4.20;;;3.60;99.90;;;;;;5050509;28;20112;-75
2021/04/04 02:52:26;;;;;;;7.45;4.15;;;3.60;1.00;;;;;;5049603;28;20022;-75
2021/04/04 02:54:54;;;;;;;6.47;3.60;;;3.50;1.00;;;;;;5050418;28;20083;-75
2021/04/04 02:57:26;;;;;;;5.68;3.28;;;3.50;1.00;;;;;;5048337;28;20026;-75
2021/04/04 02:59:55;;;;;;;8.18;4.20;;;3.60;1.00;;;;;;5054261;28;20041;-75
2021/04/04 03:02:22;;;;;;;10.77;4.43;;;3.50;1.00;;;;;;5071068;28;20018;-75
2021/04/04 03:04:49;;;;;;;9.55;4.97;;;3.50;1.00;;;;;;5056902;28;20013;-75
2021/04/04 03:07:21;;;;;;;8.55;4.80;;;3.50;1.00;;;;;;5052997;28;20060;-75
2021/04/04 03:09:51;;;;;;;9.48;4.57;;;3.40;1.00;;;;;;5051425;28;20044;-76
2021/04/04 03:12:17;;;;;;;8.25;4.43;;;3.40;1.00;;;;;;5046317;28;20014;-75
2021/04/04 03:14:45;;;;;;;8.55;4.63;;;3.50;1.00;;;;;;5050742;28;20049;-76
2021/04/04 03:17:11;;;;;;;10.68;5.30;;;3.50;1.00;;;;;;5056940;28;20037;-75
2021/04/04 03:19:45;;;;;;;9.07;4.85;;;3.50;1.00;;;;;;5057307;28;20040;-75
2021/04/04 03:22:11;;;;;;;9.27;5.15;;;3.50;1.00;;;;;;5056690;28;20025;-74
2021/04/04 03:24:39;;;;;;;4.88;4.18;;;3.50;1.00;;;;;;5056674;28;20077;-75
2021/04/04 03:27:06;;;;;;;7.30;5.35;;;3.40;1.00;;;;;;5054103;28;20102;-74
2021/04/04 03:29:33;;;;;;;14.25;5.13;;;3.40;1.00;;;;;;5056114;28;20037;-75
2021/04/04 03:32:00;;;;;;;6.13;4.75;;;3.40;1.00;;;;;;5056410;28;20021;-74
2021/04/04 03:34:27;;;;;;;10.60;5.35;;;3.30;1.00;;;;;;5053779;28;20099;-76
2021/04/04 03:36:54;;;;;;;6.43;4.75;;;3.30;1.00;;;;;;5056181;28;20081;-75
2021/04/04 03:39:22;;;;;;;17.00;5.47;;;3.30;1.00;;;;;;5054017;28;20049;-76
2021/04/04 03:41:50;;;;;;;8.40;5.38;;;3.30;1.00;;;;;;5046530;28;20025;-75
2021/04/04 03:44:20;;;;;;;8.43;5.20;;;3.30;13.90;;;;;;5055093;28;20025;-75
2021/04/04 03:46:47;;;;;;;7.18;4.45;;;3.30;1.00;;;;;;5056172;28;20017;-75
2021/04/04 03:49:13;;;;;;;12.00;5.82;;;3.30;3.80;;;;;;5048343;28;20026;-75
2021/04/04 03:51:40;;;;;;;8.40;5.47;;;3.30;1.00;;;;;;5055046;28;20048;-76
2021/04/04 03:54:10;;;;;;;8.32;5.85;;;3.30;1.00;;;;;;5044791;28;20057;-76
2021/04/04 03:56:36;;;;;;;8.90;6.18;;;3.30;1.00;;;;;;5046550;28;20065;-75
2021/04/04 03:59:07;;;;;;;12.23;5.82;;;3.20;4.20;;;;;;5053935;28;20036;-75
2021/04/04 04:01:35;;;;;;;11.15;5.70;;;3.20;1.00;;;;;;5048752;28;20029;-76
2021/04/04 04:04:03;;;;;;;11.90;5.25;;;3.20;16.60;;;;;;5040993;28;20120;-76
2021/04/04 04:06:32;;;;;;;12.63;6.60;;;3.20;14.40;;;;;;5041800;28;20026;-75
2021/04/04 04:08:59;;;;;;;8.30;4.70;;;3.10;37.00;;;;;;5040936;28;20052;-76
2021/04/04 04:11:25;;;;;;;10.15;5.70;;;3.00;41.20;;;;;;5043205;28;20029;-75
2021/04/04 04:13:53;;;;;;;7.97;5.07;;;3.00;51.70;;;;;;5053597;28;20025;-76
2021/04/04 04:16:19;;;;;;;9.73;5.53;;;2.90;76.60;;;;;;5055172;28;20021;-75
2021/04/04 04:18:45;;;;;;;7.30;4.45;;;2.90;84.50;;;;;;5057360;28;20029;-75
2021/04/04 04:21:12;;;;;;;13.88;4.18;;;2.90;83.20;;;;;;5060702;28;20120;-75
2021/04/04 04:23:39;;;;;;;8.23;5.38;;;2.90;84.50;;;;;;5058338;28;20026;-75
2021/04/04 04:26:08;;;;;;;7.75;4.93;;;2.90;95.00;;;;;;5054017;28;20052;-75
2021/04/04 04:28:34;;;;;;;9.50;4.75;;;2.90;99.90;;;;;;5059641;28;20028;-75
2021/04/04 04:31:03;;;;;;;12.15;5.28;;;2.90;99.10;;;;;;5058269;28;20093;-74
2021/04/04 04:33:29;;;;;;;12.25;5.68;;;2.90;91.60;;;;;;5058013;28;20026;-75
2021/04/04 04:35:56;;;;;;;7.82;5.50;;;3.00;62.70;;;;;;5059579;28;20052;-76
2021/04/04 04:38:23;;;;;;;9.75;5.65;;;3.00;45.30;;;;;;5075402;28;20021;-76
2021/04/04 04:40:49;;;;;;;6.90;5.10;;;3.00;65.80;;;;;;5058841;28;20037;-76
2021/04/04 04:43:18;;;;;;;9.73;5.80;;;3.00;73.60;;;;;;5060288;28;20033;-77
2021/04/04 04:45:45;;;;;;;8.27;5.63;;;3.00;92.50;;;;;;5058397;28;20029;-75
2021/04/04 04:48:11;;;;;;;11.27;6.05;;;3.00;95.10;;;;;;5059191;28;20030;-76
2021/04/04 04:50:37;;;;;;;13.15;6.80;;;3.20;76.80;;;;;;5053156;28;20048;-76
2021/04/04 04:53:03;;;;;;;11.80;6.75;;;3.10;95.20;;;;;;5038459;28;20026;-76
2021/04/04 04:55:32;;;;;;;12.45;7.82;;;3.10;99.90;;;;;;5051155;28;20061;-75
2021/04/04 04:58:00;;;;;;;11.82;7.80;;;3.10;99.90;;;;;;5037714;28;20072;-76
2021/04/04 05:00:27;;;;;;;14.18;8.55;;;3.10;99.90;;;;;;5046320;28;20080;-76
2021/04/04 05:02:53;;;;;;;13.65;9.85;;;3.10;99.90;;;;;;5033086;28;20026;-75
2021/04/04 05:05:18;;;;;;;13.70;8.73;;;3.10;99.90;;;;;;5032050;28;20493;-76
2021/04/04 05:07:46;;;;;;;13.98;8.45;;;3.10;99.90;;;;;;5045498;28;20079;-75
2021/04/04 05:10:13;;;;;;;12.07;8.55;;;3.20;99.90;;;;;;5033543;28;20029;-76
2021/04/04 05:12:50;;;;;;;14.88;8.02;;;3.20;99.90;;;;;;5035649;28;20103;-76
2021/04/04 05:15:18;;;;;;;13.70;7.32;;;3.30;95.10;;;;;;5033847;28;20034;-75
2021/04/04 05:17:44;;;;;;;13.30;8.52;;;3.50;34.40;;;;;;5029809;28;20391;-75
2021/04/04 05:20:11;;;;;;;11.85;7.75;;;3.80;37.60;;;;;;5035423;28;20082;-75
2021/04/04 05:22:38;;;;;;;12.75;8.82;;;4.00;1.00;;;;;;5030983;28;20389;-76
2021/04/04 05:25:05;;;;;;;9.25;7.03;;;4.30;1.00;;;;;;5016540;28;20456;-75
2021/04/04 05:27:31;;;;;;;9.40;6.85;;;4.60;99.90;;;;;;5021429;28;20078;-75
2021/04/04 05:30:10;;;;;;;9.55;7.22;;;5.10;99.90;;;;;;5032787;28;20025;-75
2021/04/04 05:32:46;;;;;;;9.18;6.75;;;5.40;1.00;;;;;;5025739;28;20030;-76
2021/04/04 05:35:16;;;;;;;15.38;9.55;;;5.60;1.00;;;;;;5033387;28;20104;-76
2021/04/04 05:37:45;;;;;;;12.13;7.80;;;5.90;99.90;;;;;;5033156;28;20030;-75
2021/04/04 05:40:20;;;;;;;9.52;7.28;;;6.10;99.90;;;;;;5039632;28;20037;-75
2021/04/04 05:42:51;;;;;;;12.75;6.82;;;6.20;1.00;;;;;;5034567;28;20041;-76
2021/04/04 05:45:40;;;;;;;9.93;7.82;;;6.10;99.90;;;;;;5028917;28;20025;-76
2021/04/04 05:48:41;;;;;;;12.07;8.43;;;6.20;99.90;;;;;;5028538;28;20025;-75
2021/04/04 05:51:27;;;;;;;11.45;6.50;;;6.20;99.90;;;;;;5033868;28;20389;-76
2021/04/04 05:53:59;;;;;;;7.22;6.47;;;6.10;99.90;;;;;;5025171;28;20049;-76
2021/04/04 05:56:27;;;;;;;8.88;6.15;;;5.80;99.90;;;;;;5028106;28;20047;-76
2021/04/04 05:59:10;;;;;;;10.55;6.88;;;6.00;99.90;;;;;;5026171;28;20551;-76
2021/04/04 06:01:48;;;;;;;9.65;5.55;;;5.70;4.10;;;;;;5026182;28;20026;-76
2021/04/04 06:04:44;;;;;;;10.63;7.18;;;5.50;1.00;;;;;;5033173;28;20025;-77
2021/04/04 06:07:47;;;;;;;9.52;6.75;;;5.00;1.00;;;;;;5028722;28;20072;-77
2021/04/04 06:10:40;;;;;;;7.95;6.32;;;5.10;1.00;;;;;;5023826;28;20044;-77
2021/04/04 06:13:20;;;;;;;13.15;6.47;;;5.10;1.00;;;;;;5026430;28;20172;-76
2021/04/04 06:16:08;;;;;;;13.52;7.93;;;5.00;93.70;;;;;;5027848;28;20060;-76
2021/04/04 06:18:43;;;;;;;8.88;6.65;;;4.80;93.90;;;;;;5005691;28;20141;-76
2021/04/04 06:21:22;;;;;;;12.98;7.47;;;4.70;99.90;;;;;;5036587;28;20029;-76
2021/04/04 06:24:10;;;;;;;7.80;6.90;;;4.50;99.90;;;;;;5030973;28;20025;-76
2021/04/04 06:26:55;;;;;;;13.95;7.47;;;4.70;99.90;;;;;;5037478;28;20064;-76
2021/04/04 06:29:52;;;;;;;8.23;6.90;;;4.50;99.90;;;;;;5037463;28;20034;-76
2021/04/04 06:32:27;;;;;;;7.53;6.60;;;4.70;99.90;;;;;;5037474;28;20057;-77
2021/04/04 06:34:56;;;;;;;10.88;7.15;;;4.80;99.90;;;;;;5037404;28;20449;-77
2021/04/04 06:37:34;;;;;;;9.60;6.57;;;4.90;99.90;;;;;;5036108;28;20025;-76
2021/04/04 06:40:11;;;;;;;15.05;8.07;;;5.20;99.90;;;;;;5032871;28;20041;-77
2021/04/04 06:42:58;;;;;;;7.65;6.68;;;5.00;1.00;;;;;;5024045;28;20029;-77
2021/04/04 06:45:33;;;;;;;9.35;7.63;;;5.40;1.00;;;;;;5031208;28;20106;-77
2021/04/04 06:48:20;;;;;;;9.73;7.35;;;5.30;1.00;;;;;;5032696;28;20022;-76
2021/04/04 06:50:54;;;;;;;12.68;7.05;;;5.60;99.90;;;;;;5031074;28;20374;-75
2021/04/04 06:54:05;;;;;;;9.63;6.38;;;5.50;99.90;;;;;;5028405;28;20501;-77
2021/04/04 06:56:45;;;;;;;10.05;6.43;;;5.40;99.90;;;;;;5026575;28;20049;-78
2021/04/04 06:59:27;;;;;;;11.80;7.68;;;5.70;99.90;;;;;;5035946;28;20037;-77
2021/04/04 07:01:59;;;;;;;8.68;6.63;;;5.70;99.90;;;;;;5034302;28;20133;-77
2021/04/04 07:04:34;;;;;;;11.77;6.47;;;6.10;1.00;;;;;;5038696;28;20022;-77
2021/04/04 07:07:18;;;;;;;10.07;7.13;;;6.10;63.90;;;;;;5035645;28;20062;-76
2021/04/04 07:10:03;;;;;;;11.95;7.65;;;6.30;1.00;;;;;;5035400;28;20029;-76
2021/04/04 07:13:13;;;;;;;9.85;6.40;;;6.20;1.00;;;;;;5040159;28;20059;-76
2021/04/04 07:15:53;;;;;;;10.25;7.30;;;6.30;1.00;;;;;;5027918;28;20443;-76
2021/04/04 07:18:37;;;;;;;8.48;6.85;;;6.60;99.90;;;;;;5025692;28;20025;-76
2021/04/04 07:21:15;;;;;;;10.13;6.38;;;6.60;99.90;;;;;;5022904;28;20523;-76
2021/04/04 07:23:55;;;;;;;11.18;7.50;;;6.70;99.90;;;;;;5028442;28;20037;-77
2021/04/04 07:26:40;;;;;;;9.82;6.72;;;6.90;43.70;;;;;;5045824;28;20079;-76
2021/04/04 07:29:20;;;;;;;9.38;5.82;;;7.10;1.00;;;;;;5028581;28;20033;-77
2021/04/04 07:31:52;;;;;;;12.67;6.17;;;7.10;24.70;;;;;;5026296;28;20029;-78
2021/04/04 07:34:30;;;;;;;9.98;7.43;;;7.00;99.90;;;;;;5033344;28;20026;-78
2021/04/04 07:37:21;;;;;;;9.88;6.53;;;7.10;99.90;;;;;;5022241;28;20033;-77
2021/04/04 07:40:10;;;;;;;;;;;7.40;99.90;;;;;;5024873;28;20033;-77
2021/04/04 07:43:20;;;;;;;9.63;7.00;;;7.30;99.90;;;;;;5022694;28;19932;-76
2021/04/04 07:46:11;;;;;;;7.90;5.57;;;7.40;99.90;;;;;;4954408;28;20038;-77
2021/04/04 07:48:57;;;;;;;12.10;6.57;;;7.80;99.90;;;;;;4945721;29;20027;-77
2021/04/04 07:51:26;;;;;;;10.32;6.32;;;7.90;1.00;;;;;;5018827;28;20087;-76
2021/04/04 07:53:55;;;;;;;8.98;5.95;;;8.10;99.90;;;;;;5032968;28;20499;-77
2021/04/04 07:56:26;;;;;;;7.95;6.80;;;8.20;99.90;;;;;;5030944;28;20037;-77
2021/04/04 07:59:17;;;;;;;8.10;6.38;;;8.20;56.20;;;;;;5037928;28;20026;-76
2021/04/04 08:02:02;;;;;;;8.55;6.40;;;8.40;1.00;;;;;;5028843;28;20451;-76
2021/04/04 08:04:46;;;;;;;11.82;6.53;;;8.40;1.00;;;;;;5031645;28;20072;-76
2021/04/04 08:07:19;;;;;;;7.93;5.95;;;8.60;99.90;;;;;;5032522;28;20026;-77
2021/04/04 08:09:51;;;;;;;8.45;5.63;;;8.60;99.90;;;;;;5033208;28;20033;-76
2021/04/04 08:12:49;;;;;;;9.02;6.25;;;8.70;99.90;;;;;;5051005;28;20029;-76
2021/04/04 08:15:44;;;;;;;8.50;6.05;;;8.80;99.90;;;;;;5037313;28;20068;-76
2021/04/04 08:18:10;;;;;;;7.57;6.22;;;8.90;99.90;;;;;;5029095;28;20039;-77
2021/04/04 08:20:59;;;;;;;11.43;6.18;;;9.10;28.90;;;;;;5032330;28;20553;-77
2021/04/04 08:23:34;;;;;;;8.80;5.63;;;9.20;1.00;;;;;;5040304;28;20075;-76
2021/04/04 08:26:06;;;;;;;9.35;5.75;;;9.10;1.00;;;;;;5028505;28;20022;-77
2021/04/04 08:28:41;;;;;;;7.35;5.60;;;9.10;1.00;;;;;;5030533;28;20037;-76
2021/04/04 08:31:32;;;;;;;8.00;5.93;;;9.10;1.00;;;;;;5032740;28;20022;-76
2021/04/04 08:34:11;;;;;;;10.52;5.97;;;9.30;1.00;;;;;;5036281;28;20073;-75
2021/04/04 08:36:41;;;;;;;7.40;5.47;;;9.50;99.90;;;;;;5035070;28;20030;-76
2021/04/04 08:39:09;;;;;;;11.32;5.50;;;9.50;99.90;;;;;;5019665;28;20038;-77
2021/04/04 08:41:37;;;;;;;14.32;6.00;;;9.40;99.90;;;;;;5026052;28;20517;-76
2021/04/04 08:44:21;;;;;;;12.40;6.03;;;9.40;99.90;;;;;;5041058;28;20025;-77
2021/04/04 08:46:52;;;;;;;9.13;5.88;;;9.60;99.90;;;;;;5041372;28;20025;-78
2021/04/04 08:49:18;;;;;;;;;;;10.00;99.90;;;;;;5037112;28;20143;-76
2021/04/04 08:51:59;;;;;;;10.07;6.53;;;10.10;99.90;;;;;;5026347;28;19963;-76
2021/04/04 08:54:28;;;;;;;11.15;5.15;;;10.10;99.90;;;;;;5037874;28;20374;-78
2021/04/04 08:56:56;;;;;;;11.65;7.50;;;9.90;99.90;;;;;;5037985;28;20029;-77
2021/04/04 08:59:31;;;;;;;9.68;5.50;;;9.80;99.90;;;;;;5035429;28;20025;-77
2021/04/04 09:02:01;;;;;;;13.02;5.72;;;10.00;99.90;;;;;;5036689;28;20028;-77
2021/04/04 09:04:27;;;;;;;9.68;5.57;;;10.30;30.10;;;;;;5037258;28;20026;-76
2021/04/04 09:07:02;;;;;;;11.77;5.95;;;10.30;1.80;;;;;;5036337;28;20053;-77
2021/04/04 09:09:37;;;;;;;7.38;5.63;;;10.50;1.00;;;;;;5037617;28;20033;-76
2021/04/04 09:12:05;;;;;;;9.48;5.30;;;10.60;1.00;;;;;;5038490;28;20025;-77
2021/04/04 09:14:36;;;;;;;7.65;4.95;;;10.60;1.00;;;;;;5038340;28;20116;-77
2021/04/04 09:17:06;;;;;;;;;;;10.50;1.00;;;;;;5039207;28;20389;-76
2021/04/04 09:19:36;;;;;;;10.00;5.07;;;10.40;1.00;;;;;;5036068;28;20404;-76
2021/04/04 09:22:14;;;;;;;7.82;5.18;;;10.80;1.00;;;;;;5039037;28;20482;-76
2021/04/04 09:25:00;;;;;;;7.05;4.88;;;11.10;1.00;;;;;;5035813;28;20033;-77
2021/04/04 09:27:28;;;;;;;7.75;5.45;;;10.90;1.00;;;;;;5018642;28;20030;-75
2021/04/04 09:29:58;;;;;;;7.65;5.00;;;11.20;1.00;;;;;;5028609;28;20397;-76
2021/04/04 09:32:45;;;;;;;8.48;4.95;;;11.40;99.90;;;;;;5033639;28;20081;-77
2021/04/04 09:35:25;;;;;;;5.65;4.68;;;11.10;99.90;;;;;;5046938;28;20013;-78
2021/04/04 10:11:21;;;;;;;3.05;2.08;;;12.60;93.80;;;;;;5019723;28;20054;-74
2021/04/04 10:13:47;;;;;;;6.57;2.85;;;12.60;62.40;;;;;;5008632;28;20026;-76
2021/04/04 10:16:21;;;;;;;7.00;3.42;;;12.80;44.50;;;;;;5018489;28;20055;-74
2021/04/04 10:19:01;;;;;;;5.93;3.00;;;12.70;29.40;;;;;;5000448;28;20030;-73
2021/04/04 10:21:27;;;;;;;5.05;2.45;;;12.70;25.50;;;;;;5003886;28;20026;-74
2021/04/04 10:23:54;;;;;;;3.80;2.42;;;12.90;18.90;;;;;;5004232;28;20384;-72
2021/04/04 10:26:21;;;;;;;3.58;2.28;;;12.70;7.60;;;;;;5055931;23;20084;-74
2021/04/04 10:29:00;;;;;;;4.38;2.60;;;12.80;6.10;;;;;;5035780;28;20515;-74
2021/04/04 10:31:43;;;;;;;6.82;3.03;;;12.70;5.60;;;;;;5034422;28;20029;-73
2021/04/04 10:34:11;;;;;;;2.63;2.25;;;12.50;3.80;;;;;;5038293;28;20055;-77
2021/04/04 10:36:37;;;;;;;3.50;2.30;;;12.70;1.00;;;;;;5040648;28;20033;-76
2021/04/04 10:39:03;;;;;;;4.25;2.50;;;12.30;1.00;;;;;;5035003;28;20026;-74
2021/04/04 10:41:36;;;;;;;6.22;2.40;;;12.80;1.00;;;;;;5037129;28;20051;-77
2021/04/04 10:44:02;;;;;;;5.82;2.53;;;12.90;1.00;;;;;;5032905;28;20009;-77
2021/04/04 10:47:07;;;;;;;3.35;2.47;;;13.10;1.00;;;;;;5042709;28;20548;-81
2021/04/04 10:49:39;;;;;;;2.95;2.20;;;12.60;1.00;;;;;;5044888;28;20049;-81
2021/04/04 10:52:10;;;;;;;5.07;2.50;;;12.70;1.00;;;;;;5043700;28;20033;-78
2021/04/04 10:54:36;;;;;;;4.95;2.40;;;12.70;1.00;;;;;;5038245;28;20393;-75
2021/04/04 10:57:02;;;;;;;3.38;2.75;;;12.50;1.00;;;;;;5025806;28;20109;-77
2021/04/04 10:59:29;;;;;;;3.15;2.83;;;12.40;1.00;;;;;;5017567;28;20026;-76
2021/04/04 11:01:55;;;;;;;2.63;2.20;;;12.50;1.00;;;;;;5033604;28;20033;-77
2021/04/04 11:04:22;;;;;;;6.38;2.80;;;13.10;1.00;;;;;;5018735;28;20026;-78
2021/04/04 11:06:49;;;;;;;5.43;2.92;;;13.30;1.00;;;;;;5034555;28;20228;-75
2021/04/04 11:09:15;;;;;;;4.13;2.70;;;13.30;1.00;;;;;;5050751;28;20040;-75
2021/04/04 11:11:41;;;;;;;3.00;2.55;;;12.90;1.00;;;;;;5056564;28;20029;-74
2021/04/04 11:14:10;;;;;;;4.43;1.92;;;12.80;1.00;;;;;;5056076;28;20021;-78
2021/04/04 11:16:36;;;;;;;3.25;1.92;;;13.30;1.00;;;;;;5058740;28;20024;-74
2021/04/04 11:19:08;;;;;;;3.03;2.40;;;13.60;1.00;;;;;;5047527;28;20068;-75
2021/04/04 11:21:39;;;;;;;3.15;2.53;;;13.40;1.00;;;;;;5038276;28;20017;-78
2021/04/04 11:24:14;;;;;;;5.13;3.58;;;13.20;1.00;;;;;;5039144;28;20022;-76
2021/04/04 11:26:55;;;;;;;3.53;2.70;;;12.80;1.00;;;;;;5039250;28;20037;-75
2021/04/04 11:29:25;;;;;;;5.97;2.92;;;12.80;1.00;;;;;;5036905;28;20021;-76
2021/04/04 11:31:57;;;;;;;4.50;2.88;;;12.90;1.00;;;;;;5041308;28;20085;-76
2021/04/04 11:34:34;;;;;;;6.90;4.07;;;13.20;1.00;;;;;;5048388;28;20026;-76
2021/04/04 11:37:04;;;;;;;4.70;2.75;;;13.40;1.00;;;;;;5053470;28;20032;-76
2021/04/04 11:39:33;;;;;;;3.42;2.42;;;13.50;1.00;;;;;;5054998;28;20029;-75
2021/04/04 11:42:03;;;;;;;5.18;2.53;;;13.70;1.00;;;;;;5052199;28;20033;-70
2021/04/04 11:44:31;;;;;;;4.00;2.67;;;13.30;1.00;;;;;;5046485;28;20045;-69
2021/04/04 11:47:02;;;;;;;3.58;2.67;;;13.00;1.00;;;;;;5046334;28;20025;-71
2021/04/04 11:49:30;;;;;;;3.27;2.37;;;13.50;1.00;;;;;;5034603;28;20029;-70
2021/04/04 11:52:11;;;;;;;3.28;2.45;;;13.20;1.00;;;;;;5036239;28;20060;-75
2021/04/04 11:54:49;;;;;;;3.97;2.10;;;13.40;1.00;;;;;;5045949;28;20029;-71
2021/04/04 11:57:31;;;;;;;8.15;2.60;;;13.20;1.00;;;;;;5034582;28;20063;-72
2021/04/04 12:00:00;;;;;;;5.38;2.65;;;13.30;1.00;;;;;;5038785;28;20033;-73
2021/04/04 12:02:28;;;;;;;3.70;2.47;;;13.50;1.00;;;;;;5035297;28;20014;-72
2021/04/04 12:05:13;;;;;;;5.57;2.38;;;13.50;1.00;;;;;;5036011;28;20021;-71
2021/04/04 12:07:49;;;;;;;2.85;2.03;;;13.60;1.00;;;;;;5040629;28;20350;-73
2021/04/04 12:10:18;;;;;;;5.28;2.30;;;13.60;1.00;;;;;;5047459;28;20041;-72
2021/04/04 12:12:44;;;;;;;3.63;2.40;;;13.50;1.00;;;;;;5035484;28;20034;-72
2021/04/04 12:15:16;;;;;;;6.43;2.97;;;13.30;1.00;;;;;;5033347;28;20405;-71
2021/04/04 12:17:49;;;;;;;4.22;2.67;;;13.20;1.00;;;;;;5032356;28;20037;-72
2021/04/04 12:20:18;;;;;;;3.97;2.55;;;13.30;1.00;;;;;;5032741;28;20091;-72
2021/04/04 12:22:45;;;;;;;4.10;2.63;;;13.60;1.00;;;;;;5031160;28;20025;-72
2021/04/04 12:25:19;;;;;;;5.78;3.00;;;13.80;1.00;;;;;;5032723;28;20492;-71
2021/04/04 12:27:48;;;;;;;5.10;3.30;;;13.80;1.00;;;;;;5032669;28;20498;-72
2021/04/04 12:30:36;;;;;;;4.22;2.65;;;13.60;1.00;;;;;;5032706;28;20363;-72
2021/04/04 12:33:05;;;;;;;3.92;2.38;;;13.50;1.00;;;;;;5032150;28;20033;-73
2021/04/04 12:35:32;;;;;;;7.25;2.53;;;13.60;1.00;;;;;;5032374;28;20049;-72
2021/04/04 12:37:57;;;;;;;4.47;2.15;;;13.60;1.00;;;;;;5032346;28;20170;-73
2021/04/04 12:40:24;;;;;;;3.83;2.38;;;13.60;1.00;;;;;;5035435;28;20029;-72
2021/04/04 12:42:55;;;;;;;6.25;2.53;;;13.80;1.00;;;;;;5036983;28;20099;-71
2021/04/04 12:45:21;;;;;;;3.63;2.50;;;13.40;1.00;;;;;;5034556;28;20025;-72
2021/04/04 12:47:46;;;;;;;6.00;2.50;;;13.20;1.00;;;;;;5037170;28;20040;-73
2021/04/04 12:50:16;;;;;;;3.88;2.15;;;13.20;1.00;;;;;;5036346;28;20029;-72
2021/04/04 12:52:46;;;;;;;4.43;1.90;;;13.40;1.00;;;;;;5035287;28;20030;-71
2021/04/04 12:55:32;;;;;;;8.23;2.65;;;13.90;1.00;;;;;;5035639;28;20500;-73
2021/04/04 12:58:06;;;;;;;3.20;2.40;;;13.90;1.00;;;;;;5036241;28;20025;-72
2021/04/04 13:00:40;;;;;;;2.78;2.30;;;13.90;1.00;;;;;;5037196;28;20033;-72
2021/04/04 13:03:09;;;;;;;4.35;2.42;;;13.90;1.00;;;;;;5037160;28;20029;-72
2021/04/04 13:05:41;;;;;;;4.65;2.70;;;13.80;1.00;;;;;;5035866;28;20018;-72
2021/04/04 13:08:18;;;;;;;;;;;13.50;1.00;;;;;;5043619;28;20021;-73
2021/04/04 13:10:47;;;;;;;4.00;2.28;;;13.60;1.00;;;;;;5048501;28;19905;-72
2021/04/04 13:13:18;;;;;;;7.47;2.80;;;14.00;1.00;;;;;;5053966;28;20512;-72
2021/04/04 13:15:45;;;;;;;3.83;2.75;;;13.30;1.00;;;;;;5054065;28;20029;-73
2021/04/04 13:18:21;;;;;;;4.05;2.25;;;13.30;1.00;;;;;;5055424;28;20033;-71
2021/04/04 13:20:49;;;;;;;3.97;2.70;;;13.70;1.00;;;;;;5055057;28;20028;-71
2021/04/04 13:23:15;;;;;;;5.10;2.92;;;13.90;1.00;;;;;;5055081;28;20439;-72
2021/04/04 13:25:44;;;;;;;5.75;2.97;;;14.20;1.00;;;;;;5055699;28;20028;-72
2021/04/04 13:28:10;;;;;;;5.57;2.85;;;14.30;1.00;;;;;;5055625;28;20047;-72
2021/04/04 13:30:36;;;;;;;4.53;2.67;;;14.20;1.00;;;;;;5055394;28;20033;-72
2021/04/04 13:33:02;;;;;;;4.32;2.78;;;13.90;1.00;;;;;;5055177;28;20024;-72
2021/04/04 13:35:33;;;;;;;3.65;2.60;;;14.20;1.00;;;;;;5056145;28;20033;-73
2021/04/04 13:38:02;;;;;;;4.78;2.83;;;14.50;1.00;;;;;;5055248;28;20048;-73
2021/04/04 13:40:29;;;;;;;4.30;2.60;;;14.50;1.00;;;;;;5054966;28;20087;-73
2021/04/04 13:43:06;;;;;;;5.65;3.15;;;14.50;1.00;;;;;;5056340;28;20041;-71
2021/04/04 13:45:46;;;;;;;5.45;2.80;;;14.30;1.00;;;;;;5055896;28;20021;-72
2021/04/04 13:48:27;;;;;;;4.40;2.90;;;13.90;1.00;;;;;;5055194;28;20017;-72
2021/04/04 13:50:53;;;;;;;7.68;3.25;;;14.20;1.00;;;;;;5054954;28;20028;-73
2021/04/04 13:53:35;;;;;;;6.00;2.92;;;13.90;1.00;;;;;;5054002;28;20021;-72
2021/04/04 13:56:17;;;;;;;5.85;2.85;;;13.70;1.00;;;;;;5054580;28;20017;-73
2021/04/04 13:58:46;;;;;;;5.05;2.50;;;13.60;1.00;;;;;;5054407;28;20028;-73